Time;durP1;ratioP1;P1;durP2;ratioP2;P2;SDS_P1;SDS_P2;PMS_P1;PMS_P2;Temp;Humidity;BMP_temperature;BMP_pressure;BME280_temperature;BME280_humidity;BME280_pressure;Samples;Min_cycle;Max_cycle;Signal;HPM_P1;HPM_P2
2021/04/24 00:01:57;;;;;;;;;;;12.60;58.00;;;;;;4391383;32;42317;-76
2021/04/24 00:04:30;;;;;;;;;;;12.60;57.90;;;;;;4391997;32;37021;-76
2021/04/24 00:07:03;;;;;;;;;;;12.60;57.70;;;;;;4377706;32;44997;-76
2021/04/24 00:09:32;;;;;;;;;;;12.60;57.90;;;;;;4377787;32;39586;-76
2021/04/24 00:12:04;;;;;;;;;;;12.50;57.80;;;;;;4391254;32;44834;-76
2021/04/24 00:14:36;;;;;;;;;;;12.50;57.90;;;;;;4391735;32;42400;-76
2021/04/24 00:17:08;;;;;;;;;;;12.50;57.80;;;;;;4392675;32;20011;-76
2021/04/24 00:19:40;;;;;;;;;;;12.50;58.00;;;;;;4392416;32;20427;-76
2021/04/24 00:22:11;;;;;;;;;;;12.40;58.10;;;;;;4392604;32;20064;-76
2021/04/24 00:24:43;;;;;;;;;;;12.40;57.90;;;;;;4391172;32;44262;-76
2021/04/24 00:27:13;;;;;;;;;;;12.40;58.00;;;;;;4377213;32;40104;-76
2021/04/24 00:29:45;;;;;;;;;;;12.40;58.00;;;;;;4390713;32;32024;-76
2021/04/24 00:32:17;;;;;;;;;;;12.40;58.00;;;;;;4391117;32;20417;-76
2021/04/24 00:34:54;;;;;;;;;;;12.40;58.20;;;;;;4379033;32;19996;-76
2021/04/24 00:37:26;;;;;;;;;;;12.30;58.30;;;;;;4377542;32;44538;-76
2021/04/24 00:39:56;;;;;;;;;;;12.30;58.20;;;;;;4377867;32;34258;-76
2021/04/24 00:42:28;;;;;;;;;;;12.30;58.30;;;;;;4391294;32;38812;-76
2021/04/24 00:44:58;;;;;;;;;;;12.30;58.30;;;;;;4377646;32;26598;-76
2021/04/24 00:47:28;;;;;;;;;;;12.20;58.40;;;;;;4391691;32;28463;-76
2021/04/24 00:50:00;;;;;;;;;;;12.20;58.50;;;;;;4389791;32;41161;-76
2021/04/24 00:52:33;;;;;;;;;;;12.20;58.60;;;;;;4377326;32;26460;-76
2021/04/24 00:55:03;;;;;;;;;;;12.20;58.70;;;;;;4391301;32;30924;-76
2021/04/24 00:57:33;;;;;;;;;;;12.20;58.80;;;;;;4378027;32;20007;-76
2021/04/24 01:00:07;;;;;;;;;;;12.10;59.40;;;;;;4392096;32;20004;-76
2021/04/24 01:02:33;;;;;;;;;;;12.10;58.80;;;;;;4391643;32;20059;-76
2021/04/24 01:05:09;;;;;;;;;;;12.10;58.90;;;;;;4391904;32;20048;-76
2021/04/24 01:07:39;;;;;;;;;;;12.10;59.00;;;;;;4391738;32;20105;-76
2021/04/24 01:10:14;;;;;;;;;;;12.10;58.90;;;;;;4378148;32;20012;-76
2021/04/24 01:12:44;;;;;;;;;;;12.10;59.00;;;;;;4377909;32;19989;-76
2021/04/24 01:15:18;;;;;;;;;;;12.00;59.00;;;;;;4391880;32;20018;-76
2021/04/24 01:17:51;;;;;;;;;;;12.00;59.20;;;;;;4365919;32;20030;-76
2021/04/24 01:20:20;;;;;;;;;;;12.00;59.20;;;;;;4391956;32;20268;-76
2021/04/24 01:22:53;;;;;;;;;;;12.00;59.20;;;;;;4378076;32;20126;-75
2021/04/24 01:25:26;;;;;;;;;;;12.00;59.30;;;;;;4378433;32;20000;-76
2021/04/24 01:27:59;;;;;;;;;;;12.00;59.10;;;;;;4378093;32;20040;-75
2021/04/24 01:30:35;;;;;;;;;;;11.90;59.10;;;;;;4391760;32;20107;-76
2021/04/24 01:33:07;;;;;;;;;;;11.90;59.30;;;;;;4390250;32;43671;-76
2021/04/24 01:35:37;;;;;;;;;;;11.90;59.50;;;;;;4378079;32;20034;-76
2021/04/24 01:38:12;;;;;;;;;;;11.90;59.30;;;;;;4377753;32;20004;-76
2021/04/24 01:40:46;;;;;;;;;;;11.80;59.30;;;;;;4376931;32;43916;-76
2021/04/24 01:43:15;;;;;;;;;;;11.80;59.40;;;;;;4390286;32;45055;-76
2021/04/24 01:45:45;;;;;;;;;;;11.80;59.40;;;;;;4389825;32;44348;-76
2021/04/24 01:48:20;;;;;;;;;;;11.80;59.40;;;;;;4390641;32;20059;-76
2021/04/24 01:50:54;;;;;;;;;;;11.70;59.40;;;;;;4390452;32;45044;-76
2021/04/24 01:53:25;;;;;;;;;;;11.60;59.50;;;;;;4376928;32;38914;-76
2021/04/24 01:55:57;;;;;;;;;;;11.60;59.70;;;;;;4391226;32;20047;-76
2021/04/24 01:58:29;;;;;;;;;;;11.60;59.70;;;;;;4378212;32;20393;-75
2021/04/24 02:01:00;;;;;;;;;;;11.60;59.70;;;;;;4391581;32;20008;-76
2021/04/24 02:03:34;;;;;;;;;;;11.60;59.70;;;;;;4377135;32;20004;-76
2021/04/24 02:06:05;;;;;;;;;;;11.60;59.70;;;;;;4391471;32;20056;-75
2021/04/24 02:08:42;;;;;;;;;;;11.60;59.70;;;;;;4377892;32;20353;-75
2021/04/24 02:11:12;;;;;;;;;;;11.50;59.70;;;;;;4378238;32;20079;-75
2021/04/24 02:13:51;;;;;;;;;;;11.50;59.80;;;;;;4391184;32;20089;-76
2021/04/24 02:16:23;;;;;;;;;;;11.50;59.80;;;;;;4376647;32;44699;-76
2021/04/24 02:18:58;;;;;;;;;;;11.50;59.90;;;;;;4390275;32;38678;-75
2021/04/24 02:21:28;;;;;;;;;;;11.40;59.90;;;;;;4391209;32;20011;-75
2021/04/24 02:23:57;;;;;;;;;;;11.40;59.90;;;;;;4389648;32;37381;-75
2021/04/24 02:26:29;;;;;;;;;;;11.40;60.10;;;;;;4390807;32;20056;-76
2021/04/24 02:28:59;;;;;;;;;;;11.40;60.30;;;;;;4388977;32;45021;-75
2021/04/24 02:31:28;;;;;;;;;;;11.40;60.30;;;;;;4391238;32;20056;-75
2021/04/24 02:34:03;;;;;;;;;;;11.40;60.40;;;;;;4389729;32;40709;-75
2021/04/24 02:36:35;;;;;;;;;;;11.40;60.40;;;;;;4390008;32;44096;-75
2021/04/24 02:39:04;;;;;;;;;;;11.40;60.40;;;;;;4390019;32;44320;-76
2021/04/24 02:41:36;;;;;;;;;;;11.40;60.40;;;;;;4390723;32;20016;-76
2021/04/24 02:44:06;;;;;;;;;;;11.40;60.20;;;;;;4390901;32;20008;-76
2021/04/24 02:46:41;;;;;;;;;;;11.30;60.20;;;;;;4391365;32;20064;-76
2021/04/24 02:49:12;;;;;;;;;;;11.30;60.30;;;;;;4390916;32;19993;-76
2021/04/24 02:51:45;;;;;;;;;;;11.30;60.40;;;;;;4366684;32;44748;-76
2021/04/24 02:54:17;;;;;;;;;;;11.30;60.50;;;;;;4393504;32;20068;-75
2021/04/24 02:56:49;;;;;;;;;;;11.30;60.60;;;;;;4378675;32;44412;-76
2021/04/24 02:59:22;;;;;;;;;;;11.20;60.40;;;;;;4392802;32;44322;-76
2021/04/24 03:01:52;;;;;;;;;;;11.20;60.50;;;;;;4365860;32;44598;-76
2021/04/24 03:04:27;;;;;;;;;;;11.20;60.60;;;;;;4393828;32;20531;-75
2021/04/24 03:06:59;;;;;;;;;;;11.20;60.70;;;;;;4379980;32;20022;-75
2021/04/24 03:09:31;;;;;;;;;;;11.20;60.70;;;;;;4380304;32;20048;-76
2021/04/24 03:12:06;;;;;;;;;;;11.20;60.70;;;;;;4380092;32;20007;-75
2021/04/24 03:14:38;;;;;;;;;;;11.10;60.60;;;;;;4391343;32;43427;-75
2021/04/24 03:17:13;;;;;;;;;;;11.10;60.60;;;;;;4366860;32;33357;-76
2021/04/24 03:19:39;;;;;;;;;;;11.20;60.70;;;;;;4378834;32;32699;-76
2021/04/24 03:22:06;;;;;;;;;;;11.10;60.70;;;;;;4392325;32;31747;-76
2021/04/24 03:24:41;;;;;;;;;;;11.10;60.70;;;;;;4391908;32;20375;-76
2021/04/24 03:27:13;;;;;;;;;;;11.10;60.80;;;;;;4378784;32;43362;-76
2021/04/24 03:29:45;;;;;;;;;;;11.10;60.80;;;;;;4393406;32;20082;-76
2021/04/24 03:32:21;;;;;;;;;;;11.10;60.80;;;;;;4379980;32;20056;-76
2021/04/24 03:34:52;;;;;;;;;;;11.00;60.70;;;;;;4379743;32;20001;-76
2021/04/24 03:37:27;;;;;;;;;;;11.00;60.80;;;;;;4378811;32;43403;-76
2021/04/24 03:39:56;;;;;;;;;;;11.00;60.90;;;;;;4378617;32;40698;-76
2021/04/24 03:42:23;;;;;;;;;;;11.00;60.90;;;;;;4379528;32;20014;-76
2021/04/24 03:44:53;;;;;;;;;;;10.90;60.90;;;;;;4393005;32;20050;-76
2021/04/24 03:47:28;;;;;;;;;;;11.00;61.00;;;;;;4391137;32;35657;-75
2021/04/24 03:49:57;;;;;;;;;;;10.90;61.00;;;;;;4392116;32;42979;-75
2021/04/24 03:52:32;;;;;;;;;;;10.90;61.10;;;;;;4378271;32;39673;-75
2021/04/24 03:55:00;;;;;;;;;;;10.90;61.20;;;;;;4378139;32;43712;-75
2021/04/24 03:57:35;;;;;;;;;;;10.80;61.10;;;;;;4392841;32;20075;-75
2021/04/24 04:00:08;;;;;;;;;;;10.80;61.00;;;;;;4379041;32;20069;-75
2021/04/24 04:02:51;;;;;;;;;;;10.80;61.20;;;;;;4391919;32;27155;-75
2021/04/24 04:05:27;;;;;;;;;;;10.80;61.20;;;;;;4392328;32;20422;-75
2021/04/24 04:08:02;;;;;;;;;;;10.70;61.20;;;;;;4391792;32;20015;-75
2021/04/24 04:10:37;;;;;;;;;;;10.70;61.30;;;;;;4366443;32;20010;-75
2021/04/24 04:13:10;;;;;;;;;;;10.70;61.10;;;;;;4390670;32;37036;-75
2021/04/24 04:15:42;;;;;;;;;;;10.70;61.40;;;;;;4391656;32;20083;-75
2021/04/24 04:18:22;;;;;;;;;;;10.60;61.30;;;;;;4392669;32;20035;-75
2021/04/24 04:20:57;;;;;;;;;;;10.60;61.20;;;;;;4365500;32;44505;-75
2021/04/24 04:23:29;;;;;;;;;;;10.60;61.30;;;;;;4392912;32;20046;-75
2021/04/24 04:26:03;;;;;;;;;;;10.50;61.50;;;;;;4379481;32;20008;-75
2021/04/24 04:28:30;;;;;;;;;;;10.50;61.60;;;;;;4391935;32;25034;-75
2021/04/24 04:30:57;;;;;;;;;;;10.50;61.70;;;;;;4391288;32;43691;-75
2021/04/24 04:33:30;;;;;;;;;;;10.50;61.90;;;;;;4391533;32;43384;-75
2021/04/24 04:36:04;;;;;;;;;;;10.50;62.10;;;;;;4377473;32;43790;-75
2021/04/24 04:38:36;;;;;;;;;;;10.50;62.10;;;;;;4390215;32;42465;-75
2021/04/24 04:41:11;;;;;;;;;;;10.50;62.10;;;;;;4392420;32;19997;-75
2021/04/24 04:43:43;;;;;;;;;;;10.40;62.00;;;;;;4391067;32;20045;-75
2021/04/24 04:46:17;;;;;;;;;;;10.50;62.30;;;;;;4392315;32;20087;-75
2021/04/24 04:48:47;;;;;;;;;;;10.50;62.50;;;;;;4392192;32;20027;-75
2021/04/24 04:51:20;;;;;;;;;;;10.40;62.10;;;;;;4366560;32;20427;-75
2021/04/24 04:53:57;;;;;;;;;;;10.40;61.90;;;;;;4379254;32;20071;-75
2021/04/24 04:56:30;;;;;;;;;;;10.40;62.10;;;;;;4392185;32;20008;-75
2021/04/24 04:59:02;;;;;;;;;;;10.40;62.10;;;;;;4391107;32;44724;-75
2021/04/24 05:01:31;;;;;;;;;;;10.30;62.00;;;;;;4390760;32;43669;-75
2021/04/24 05:03:58;;;;;;;;;;;10.30;62.30;;;;;;4391324;32;20053;-75
2021/04/24 05:06:33;;;;;;;;;;;10.30;62.30;;;;;;4391665;32;20018;-75
2021/04/24 05:09:08;;;;;;;;;;;10.30;62.50;;;;;;4391614;32;20518;-75
2021/04/24 05:11:37;;;;;;;;;;;10.20;62.60;;;;;;4390272;32;44090;-75
2021/04/24 05:14:10;;;;;;;;;;;10.30;62.70;;;;;;4389709;32;43528;-75
2021/04/24 05:16:39;;;;;;;;;;;10.30;62.50;;;;;;4378469;32;20127;-75
2021/04/24 05:19:14;;;;;;;;;;;10.20;62.70;;;;;;4391999;32;20277;-75
2021/04/24 05:21:44;;;;;;;;;;;10.20;62.50;;;;;;4390636;32;43421;-75
2021/04/24 05:24:14;;;;;;;;;;;10.20;62.70;;;;;;4391538;32;20043;-75
2021/04/24 05:26:48;;;;;;;;;;;10.20;62.90;;;;;;4391575;32;20008;-75
2021/04/24 05:29:23;;;;;;;;;;;10.20;63.00;;;;;;4391600;32;20016;-75
2021/04/24 05:31:55;;;;;;;;;;;10.20;63.10;;;;;;4391814;32;20005;-75
2021/04/24 05:34:30;;;;;;;;;;;10.20;63.10;;;;;;4391766;32;20466;-75
2021/04/24 05:37:07;;;;;;;;;;;10.10;63.20;;;;;;4390825;32;31684;-75
2021/04/24 05:39:39;;;;;;;;;;;10.10;63.10;;;;;;4389521;32;32244;-75
2021/04/24 05:42:15;;;;;;;;;;;10.10;63.40;;;;;;4377577;32;20315;-75
2021/04/24 05:44:49;;;;;;;;;;;10.10;63.40;;;;;;4390314;32;43686;-75
2021/04/24 05:47:21;;;;;;;;;;;10.00;63.30;;;;;;4378110;32;20045;-75
2021/04/24 05:49:52;;;;;;;;;;;10.00;63.50;;;;;;4389983;32;20050;-75
2021/04/24 05:52:22;;;;;;;;;;;10.00;63.60;;;;;;4391294;32;20390;-75
2021/04/24 05:54:54;;;;;;;;;;;10.00;63.70;;;;;;4377715;32;20000;-75
2021/04/24 05:57:24;;;;;;;;;;;10.00;63.90;;;;;;4376720;32;37640;-75
2021/04/24 05:59:59;;;;;;;;;;;10.00;64.10;;;;;;4365483;32;20052;-75
2021/04/24 06:02:29;;;;;;;;;;;10.00;64.20;;;;;;4373826;32;38817;-75
2021/04/24 06:05:03;;;;;;;;;;;10.00;64.20;;;;;;4363117;32;20040;-75
2021/04/24 06:07:34;;;;;;;;;;;10.00;64.50;;;;;;4373669;32;45102;-75
2021/04/24 06:10:05;;;;;;;;;;;10.00;64.50;;;;;;4375424;32;20013;-75
2021/04/24 06:12:37;;;;;;;;;;;10.00;64.40;;;;;;4375193;32;20001;-75
2021/04/24 06:15:08;;;;;;;;;;;10.00;64.30;;;;;;4376205;32;20060;-75
2021/04/24 06:17:39;;;;;;;;;;;10.00;64.30;;;;;;4374579;32;27058;-75
2021/04/24 06:20:12;;;;;;;;;;;10.00;64.40;;;;;;4375152;32;20049;-75
2021/04/24 06:22:42;;;;;;;;;;;10.00;64.40;;;;;;4375870;32;36605;-75
2021/04/24 06:25:14;;;;;;;;;;;9.90;64.20;;;;;;4379152;32;20389;-75
2021/04/24 06:27:47;;;;;;;;;;;10.00;64.20;;;;;;4378053;32;20121;-75
2021/04/24 06:30:18;;;;;;;;;;;9.90;64.20;;;;;;4390483;32;20028;-75
2021/04/24 06:32:51;;;;;;;;;;;9.90;64.20;;;;;;4364574;32;44384;-75
2021/04/24 06:35:21;;;;;;;;;;;9.90;64.30;;;;;;4377126;32;34444;-75
2021/04/24 06:37:57;;;;;;;;;;;9.90;64.40;;;;;;4377727;32;20022;-75
2021/04/24 06:40:31;;;;;;;;;;;9.90;64.40;;;;;;4378308;32;27041;-75
2021/04/24 06:43:01;;;;;;;;;;;9.90;64.30;;;;;;4365275;32;20417;-75
2021/04/24 06:45:31;;;;;;;;;;;9.90;64.30;;;;;;4377411;32;20001;-75
2021/04/24 06:48:01;;;;;;;;;;;9.90;64.20;;;;;;4377745;32;20071;-75
2021/04/24 06:50:31;;;;;;;;;;;9.90;64.20;;;;;;4377317;32;20001;-75
2021/04/24 06:53:00;;;;;;;;;;;9.90;64.20;;;;;;4378501;32;20043;-75
2021/04/24 06:55:32;;;;;;;;;;;9.90;64.20;;;;;;4378925;32;20022;-75
2021/04/24 06:58:01;;;;;;;;;;;9.90;64.30;;;;;;4376628;32;43112;-75
2021/04/24 07:00:32;;;;;;;;;;;9.90;64.40;;;;;;4377768;32;20007;-75
2021/04/24 07:03:00;;;;;;;;;;;9.90;64.40;;;;;;4384025;32;35461;-75
2021/04/24 07:05:30;;;;;;;;;;;9.90;64.40;;;;;;4379568;32;19993;-75
2021/04/24 07:08:00;;;;;;;;;;;9.90;64.40;;;;;;4393821;32;20071;-75
2021/04/24 07:10:33;;;;;;;;;;;9.90;64.40;;;;;;4379717;32;20012;-75
2021/04/24 07:13:05;;;;;;;;;;;9.90;64.40;;;;;;4379260;32;30026;-75
2021/04/24 07:15:34;;;;;;;;;;;9.90;64.40;;;;;;4392528;32;39728;-75
2021/04/24 07:18:10;;;;;;;;;;;9.90;64.40;;;;;;4378318;32;44614;-75
2021/04/24 07:20:41;;;;;;;;;;;9.90;64.30;;;;;;4367618;32;20323;-75
2021/04/24 07:23:13;;;;;;;;;;;9.90;64.40;;;;;;4378152;32;43227;-75
2021/04/24 07:25:45;;;;;;;;;;;10.00;64.50;;;;;;4392358;32;39271;-75
2021/04/24 07:28:16;;;;;;;;;;;10.00;64.60;;;;;;4392327;32;40233;-75
2021/04/24 07:30:53;;;;;;;;;;;10.00;64.60;;;;;;4380030;32;19992;-75
2021/04/24 07:33:22;;;;;;;;;;;10.00;64.70;;;;;;4378140;32;45420;-75
2021/04/24 07:35:52;;;;;;;;;;;10.00;64.70;;;;;;4379009;32;20397;-75
2021/04/24 07:38:24;;;;;;;;;;;10.00;64.80;;;;;;4393382;32;20060;-75
2021/04/24 07:40:56;;;;;;;;;;;10.10;64.70;;;;;;4379791;32;20087;-75
2021/04/24 07:43:28;;;;;;;;;;;10.10;64.80;;;;;;4393083;32;20012;-75
2021/04/24 07:45:58;;;;;;;;;;;10.10;64.70;;;;;;4393007;32;20013;-75
2021/04/24 07:48:28;;;;;;;;;;;10.10;64.80;;;;;;4391736;32;20008;-75
2021/04/24 07:50:58;;;;;;;;;;;10.10;64.90;;;;;;4366793;32;20372;-75
2021/04/24 07:53:30;;;;;;;;;;;10.10;64.90;;;;;;4393341;32;20022;-74
2021/04/24 07:56:02;;;;;;;;;;;10.20;64.80;;;;;;4379822;32;20035;-75
2021/04/24 07:58:32;;;;;;;;;;;10.20;64.80;;;;;;4379588;32;20008;-74
2021/04/24 08:01:03;;;;;;;;;;;10.20;64.90;;;;;;4377627;32;42782;-74
2021/04/24 08:03:35;;;;;;;;;;;10.20;64.80;;;;;;4378697;32;20364;-75
2021/04/24 08:06:06;;;;;;;;;;;10.20;64.80;;;;;;4392729;32;20007;-75
2021/04/24 08:08:42;;;;;;;;;;;10.20;64.90;;;;;;4379041;32;20052;-74
2021/04/24 08:11:11;;;;;;;;;;;10.20;64.90;;;;;;4377885;32;45549;-75
2021/04/24 08:13:38;;;;;;;;;;;10.20;64.80;;;;;;4391480;32;39983;-75
2021/04/24 08:16:12;;;;;;;;;;;10.20;64.80;;;;;;4390292;32;32349;-75
2021/04/24 08:18:42;;;;;;;;;;;10.20;64.60;;;;;;4365641;32;35692;-75
2021/04/24 08:21:11;;;;;;;;;;;10.30;64.70;;;;;;4377430;32;44972;-75
2021/04/24 08:23:41;;;;;;;;;;;10.30;64.50;;;;;;4391006;32;41434;-75
2021/04/24 08:26:10;;;;;;;;;;;10.30;64.50;;;;;;4391696;32;31001;-75
2021/04/24 08:28:40;;;;;;;;;;;10.30;64.40;;;;;;4392633;32;20453;-75
2021/04/24 08:31:13;;;;;;;;;;;10.30;64.40;;;;;;4378117;32;37713;-75
2021/04/24 08:33:42;;;;;;;;;;;10.30;64.50;;;;;;4391358;32;35725;-75
2021/04/24 08:36:15;;;;;;;;;;;10.30;64.30;;;;;;4377236;32;39291;-75
2021/04/24 08:38:45;;;;;;;;;;;10.40;64.40;;;;;;4377713;32;44609;-75
2021/04/24 08:41:12;;;;;;;;;;;10.40;64.10;;;;;;4377117;32;44474;-76
2021/04/24 08:43:41;;;;;;;;;;;10.30;63.90;;;;;;4392207;32;20057;-75
2021/04/24 08:46:17;;;;;;;;;;;10.40;63.90;;;;;;4377858;32;20044;-75
2021/04/24 08:48:49;;;;;;;;;;;10.40;63.60;;;;;;4377663;32;34403;-76
2021/04/24 08:51:22;;;;;;;;;;;10.40;63.60;;;;;;4378817;32;20008;-75
2021/04/24 08:53:54;;;;;;;;;;;10.40;63.50;;;;;;4391874;32;20008;-76
2021/04/24 08:56:30;;;;;;;;;;;10.50;63.50;;;;;;4378622;32;20063;-75
2021/04/24 08:59:00;;;;;;;;;;;10.40;63.40;;;;;;4377092;32;42452;-76
2021/04/24 09:01:26;;;;;;;;;;;10.40;63.50;;;;;;4377075;32;37045;-76
2021/04/24 09:03:56;;;;;;;;;;;10.50;63.60;;;;;;4372028;32;44520;-76
2021/04/24 09:06:26;;;;;;;;;;;10.50;63.70;;;;;;4359780;32;40344;-76
2021/04/24 09:09:02;;;;;;;;;;;10.60;63.60;;;;;;4359990;32;21012;-76
2021/04/24 09:11:39;;;;;;;;;;;10.60;64.30;;;;;;4360039;32;43793;-76
2021/04/24 09:14:10;;;;;;;;;;;10.60;63.30;;;;;;4359791;32;44665;-76
2021/04/24 09:16:45;;;;;;;;;;;10.60;63.20;;;;;;4360733;32;20011;-76
2021/04/24 09:19:30;;;;;;;;;;;10.60;63.10;;;;;;4359695;32;44767;-76
2021/04/24 09:22:12;;;;;;;;;;;10.60;63.00;;;;;;4347168;32;44347;-76
2021/04/24 09:24:42;;;;;;;;;;;10.70;62.80;;;;;;4361360;32;20009;-76
2021/04/24 09:27:17;;;;;;;;;;;10.70;62.70;;;;;;4348153;32;20357;-76
2021/04/24 09:30:10;;;;;;;;;;;10.70;62.80;;;;;;4347893;32;42867;-76
2021/04/24 09:32:37;;;;;;;;;;;10.70;62.90;;;;;;4346892;32;46018;-76
2021/04/24 09:35:04;;;;;;;;;;;10.70;62.70;;;;;;4359384;32;43780;-76
2021/04/24 09:37:33;;;;;;;;;;;10.80;62.70;;;;;;4359367;32;45000;-75
2021/04/24 09:40:08;;;;;;;;;;;10.80;62.30;;;;;;4361302;32;20016;-76
2021/04/24 09:42:43;;;;;;;;;;;10.80;62.20;;;;;;4360679;32;20013;-76
2021/04/24 09:45:27;;;;;;;;;;;10.80;62.20;;;;;;4346988;32;31721;-76
2021/04/24 09:47:59;;;;;;;;;;;10.80;62.00;;;;;;4359816;32;20000;-75
2021/04/24 09:50:36;;;;;;;;;;;10.80;61.80;;;;;;4348328;32;20013;-76
2021/04/24 09:53:16;;;;;;;;;;;10.80;61.60;;;;;;4359161;32;45315;-76
2021/04/24 09:55:49;;;;;;;;;;;10.90;61.60;;;;;;4360463;32;20001;-75
2021/04/24 09:58:28;;;;;;;;;;;10.90;61.60;;;;;;4361250;32;20402;-75
2021/04/24 10:01:15;;;;;;;;;;;10.90;61.40;;;;;;4361106;32;20043;-76
2021/04/24 10:03:48;;;;;;;;;;;10.90;61.30;;;;;;4355690;32;20102;-76
2021/04/24 10:06:24;;;;;;;;;;;10.90;61.40;;;;;;4390403;32;20048;-76
2021/04/24 10:09:12;;;;;;;;;;;10.90;60.90;;;;;;4377382;32;20085;-76
2021/04/24 10:11:44;;;;;;;;;;;10.90;60.80;;;;;;4385495;32;20007;-76
2021/04/24 10:14:26;;;;;;;;;;;10.90;60.50;;;;;;4377930;32;20061;-76
2021/04/24 10:16:56;;;;;;;;;;;10.90;60.70;;;;;;4391359;32;20019;-76
2021/04/24 10:19:26;;;;;;;;;;;10.90;60.70;;;;;;4391399;32;20431;-76
2021/04/24 10:21:55;;;;;;;;;;;11.00;60.90;;;;;;4377176;32;20412;-76
2021/04/24 10:24:30;;;;;;;;;;;11.00;60.70;;;;;;4377698;32;20038;-76
2021/04/24 10:26:59;;;;;;;;;;;11.00;60.80;;;;;;4390153;32;42037;-76
2021/04/24 10:29:26;;;;;;;;;;;11.00;60.90;;;;;;4376115;32;40247;-76
2021/04/24 10:31:56;;;;;;;;;;;11.00;60.70;;;;;;4390806;32;20012;-76
2021/04/24 10:34:26;;;;;;;;;;;11.10;60.80;;;;;;4390814;32;20008;-76
2021/04/24 10:37:03;;;;;;;;;;;11.00;60.70;;;;;;4377909;32;20015;-76
2021/04/24 10:39:34;;;;;;;;;;;11.10;60.60;;;;;;4375838;32;44431;-76
2021/04/24 10:42:04;;;;;;;;;;;11.10;61.40;;;;;;4376302;32;37643;-76
2021/04/24 10:44:52;;;;;;;;;;;11.10;60.70;;;;;;4377564;32;20020;-76
2021/04/24 10:47:38;;;;;;;;;;;11.10;60.60;;;;;;4391206;32;20004;-76
2021/04/24 10:50:09;;;;;;;;;;;11.20;60.60;;;;;;4376979;32;20417;-76
2021/04/24 10:52:44;;;;;;;;;;;11.20;60.40;;;;;;4391096;32;20022;-76
2021/04/24 10:55:20;;;;;;;;;;;11.20;60.40;;;;;;4390909;32;20077;-76
2021/04/24 10:57:54;;;;;;;;;;;11.20;60.40;;;;;;4389846;32;44655;-76
2021/04/24 11:00:28;;;;;;;;;;;11.20;60.20;;;;;;4375999;32;43531;-76
2021/04/24 11:02:59;;;;;;;;;;;11.20;60.30;;;;;;4376169;32;39521;-76
2021/04/24 11:05:27;;;;;;;;;;;11.30;60.40;;;;;;4376015;32;37800;-76
2021/04/24 11:08:21;;;;;;;;;;;11.30;60.50;;;;;;4375784;32;42145;-76
2021/04/24 11:10:58;;;;;;;;;;;11.30;60.40;;;;;;4378833;32;20007;-76
2021/04/24 11:13:33;;;;;;;;;;;11.40;60.40;;;;;;4393745;32;20022;-76
2021/04/24 11:16:03;;;;;;;;;;;11.40;60.40;;;;;;4379820;32;19997;-76
2021/04/24 11:18:34;;;;;;;;;;;11.40;60.40;;;;;;4368126;32;19992;-76
2021/04/24 11:21:08;;;;;;;;;;;11.40;60.10;;;;;;4367471;32;20055;-76
2021/04/24 11:24:01;;;;;;;;;;;11.40;60.10;;;;;;4393375;32;20071;-76
2021/04/24 11:26:31;;;;;;;;;;;11.50;60.20;;;;;;4380727;32;20417;-76
2021/04/24 11:29:10;;;;;;;;;;;11.50;60.20;;;;;;4393158;32;20051;-75
2021/04/24 11:31:43;;;;;;;;;;;11.50;60.00;;;;;;4380065;32;20015;-75
2021/04/24 11:34:23;;;;;;;;;;;11.50;60.00;;;;;;4379700;32;20040;-75
2021/04/24 11:37:09;;;;;;;;;;;11.60;60.10;;;;;;4393319;32;20014;-74
2021/04/24 11:39:58;;;;;;;;;;;11.60;60.20;;;;;;4379181;32;20092;-76
2021/04/24 11:42:32;;;;;;;;;;;11.60;59.90;;;;;;4393103;32;20095;-75
2021/04/24 11:44:59;;;;;;;;;;;11.60;59.70;;;;;;4378570;32;42118;-75
2021/04/24 11:47:44;;;;;;;;;;;11.60;59.70;;;;;;4378726;32;21932;-75
2021/04/24 11:50:21;;;;;;;;;;;11.70;59.80;;;;;;4392134;32;43907;-75
2021/04/24 11:52:55;;;;;;;;;;;11.70;59.80;;;;;;4378404;32;44984;-75
2021/04/24 11:55:26;;;;;;;;;;;11.70;59.60;;;;;;4378738;32;40697;-75
2021/04/24 11:58:15;;;;;;;;;;;11.70;59.50;;;;;;4378371;32;20384;-75
2021/04/24 12:00:41;;;;;;;;;;;11.70;59.50;;;;;;4391275;32;43817;-75
2021/04/24 12:03:16;;;;;;;;;;;11.80;59.40;;;;;;4377660;32;38901;-75
2021/04/24 12:05:43;;;;;;;;;;;11.80;59.40;;;;;;4391754;32;44576;-75
2021/04/24 12:08:23;;;;;;;;;;;11.80;59.30;;;;;;4378573;32;20643;-75
2021/04/24 12:10:55;;;;;;;;;;;11.80;59.30;;;;;;4378555;32;44142;-75
2021/04/24 12:13:24;;;;;;;;;;;11.80;59.30;;;;;;4377626;32;44860;-75
2021/04/24 12:15:54;;;;;;;;;;;11.90;59.40;;;;;;4378117;32;34098;-75
2021/04/24 12:18:27;;;;;;;;;;;11.90;59.40;;;;;;4365198;32;42296;-75
2021/04/24 12:20:54;;;;;;;;;;;11.90;59.30;;;;;;4378074;32;32547;-75
2021/04/24 12:23:20;;;;;;;;;;;11.90;59.10;;;;;;4379168;32;20319;-75
2021/04/24 12:25:50;;;;;;;;;;;12.00;59.20;;;;;;4390855;32;20024;-75
2021/04/24 12:28:22;;;;;;;;;;;12.00;59.20;;;;;;4366727;32;19992;-75
2021/04/24 12:30:54;;;;;;;;;;;12.00;59.20;;;;;;4392161;32;20008;-75
2021/04/24 12:33:26;;;;;;;;;;;12.10;59.30;;;;;;4377669;32;37653;-75
2021/04/24 12:36:02;;;;;;;;;;;12.10;59.20;;;;;;4365068;32;45059;-75
2021/04/24 12:38:30;;;;;;;;;;;12.10;59.00;;;;;;4391641;32;44321;-75
2021/04/24 12:41:04;;;;;;;;;;;12.10;58.80;;;;;;4365204;32;30339;-75
2021/04/24 12:43:31;;;;;;;;;;;12.20;58.90;;;;;;4391332;32;41746;-75
2021/04/24 12:46:05;;;;;;;;;;;12.20;58.70;;;;;;4378858;32;20018;-76
2021/04/24 12:48:40;;;;;;;;;;;12.20;58.80;;;;;;4378886;32;20118;-75
2021/04/24 12:51:15;;;;;;;;;;;12.20;58.80;;;;;;4378184;32;20000;-75
2021/04/24 12:53:48;;;;;;;;;;;12.30;58.80;;;;;;4392417;32;20107;-75
2021/04/24 12:56:26;;;;;;;;;;;12.30;58.90;;;;;;4391241;32;20056;-76
2021/04/24 12:59:03;;;;;;;;;;;12.30;58.90;;;;;;4391908;32;20022;-76
2021/04/24 13:01:30;;;;;;;;;;;12.40;59.00;;;;;;4392387;32;20012;-75
2021/04/24 13:04:00;;;;;;;;;;;12.40;58.90;;;;;;4378429;32;20018;-75
2021/04/24 13:06:33;;;;;;;;;;;12.40;58.90;;;;;;4378553;32;20027;-75
2021/04/24 13:09:00;;;;;;;;;;;12.50;59.00;;;;;;4378018;32;20472;-76
2021/04/24 13:11:50;;;;;;;;;;;12.50;58.90;;;;;;4391531;32;20008;-75
2021/04/24 13:14:23;;;;;;;;;;;12.50;58.70;;;;;;4361037;32;20003;-75
2021/04/24 13:17:03;;;;;;;;;;;12.60;58.80;;;;;;4366178;32;20008;-75
2021/04/24 13:19:46;;;;;;;;;;;12.60;58.80;;;;;;4376915;32;45761;-75
2021/04/24 13:22:29;;;;;;;;;;;12.60;58.90;;;;;;4390038;32;24156;-75
2021/04/24 13:24:55;;;;;;;;;;;12.70;58.90;;;;;;4364493;32;38498;-75
2021/04/24 13:27:26;;;;;;;;;;;12.70;58.70;;;;;;4376760;32;45441;-76
2021/04/24 13:29:56;;;;;;;;;;;12.70;58.70;;;;;;4378124;32;20030;-75
2021/04/24 13:32:28;;;;;;;;;;;12.80;58.60;;;;;;4377613;32;20022;-75
2021/04/24 13:34:58;;;;;;;;;;;12.80;58.50;;;;;;4377776;32;19997;-76
2021/04/24 13:37:31;;;;;;;;;;;12.80;58.40;;;;;;4378105;32;20040;-76
2021/04/24 13:40:06;;;;;;;;;;;12.90;58.20;;;;;;4376914;32;38452;-75
2021/04/24 13:42:40;;;;;;;;;;;12.90;58.10;;;;;;4376639;32;46280;-77
2021/04/24 13:45:14;;;;;;;;;;;12.90;58.20;;;;;;4377191;32;33134;-77
2021/04/24 13:47:45;;;;;;;;;;;12.90;58.20;;;;;;4365209;32;20423;-76
2021/04/24 13:50:20;;;;;;;;;;;12.90;58.20;;;;;;4377413;32;20060;-77
2021/04/24 13:52:55;;;;;;;;;;;13.00;58.30;;;;;;4390326;32;20007;-77
2021/04/24 13:55:28;;;;;;;;;;;13.00;58.30;;;;;;4364222;32;42104;-77
2021/04/24 13:58:14;;;;;;;;;;;13.10;58.20;;;;;;4377304;32;20326;-77
2021/04/24 14:00:45;;;;;;;;;;;13.10;57.90;;;;;;4377963;32;20016;-77
2021/04/24 14:03:17;;;;;;;;;;;13.10;58.00;;;;;;4373861;32;38389;-77
2021/04/24 14:05:50;;;;;;;;;;;13.10;57.70;;;;;;4374128;32;40326;-77
2021/04/24 14:08:22;;;;;;;;;;;13.20;57.60;;;;;;4387796;32;20004;-77
2021/04/24 14:10:53;;;;;;;;;;;13.20;57.30;;;;;;4362862;32;20007;-77
2021/04/24 14:13:25;;;;;;;;;;;13.20;57.40;;;;;;4373835;32;35467;-77
2021/04/24 14:16:14;;;;;;;;;;;13.20;57.20;;;;;;4375854;32;20046;-77
2021/04/24 14:18:41;;;;;;;;;;;13.30;57.10;;;;;;4373622;32;42196;-77
2021/04/24 14:21:10;;;;;;;;;;;13.30;57.00;;;;;;4373625;32;38739;-77
2021/04/24 14:23:37;;;;;;;;;;;13.40;56.50;;;;;;4386461;32;36400;-77
2021/04/24 14:26:12;;;;;;;;;;;13.40;56.60;;;;;;4375058;32;39000;-77
2021/04/24 14:28:42;;;;;;;;;;;13.40;56.60;;;;;;4373950;32;44079;-77
2021/04/24 14:31:14;;;;;;;;;;;13.50;56.80;;;;;;4374781;32;20021;-77
2021/04/24 14:33:46;;;;;;;;;;;13.50;56.50;;;;;;4361027;32;44484;-77
2021/04/24 14:36:16;;;;;;;;;;;13.50;56.50;;;;;;4375443;32;26965;-77
2021/04/24 14:38:46;;;;;;;;;;;13.50;56.40;;;;;;4373604;32;33521;-77
2021/04/24 14:41:16;;;;;;;;;;;13.60;56.20;;;;;;4387574;32;20009;-77
2021/04/24 14:43:48;;;;;;;;;;;13.60;56.10;;;;;;4374577;32;20001;-77
2021/04/24 14:46:19;;;;;;;;;;;13.70;56.10;;;;;;4389475;32;23045;-77
2021/04/24 14:48:53;;;;;;;;;;;13.70;55.90;;;;;;4377037;32;34903;-77
2021/04/24 14:51:29;;;;;;;;;;;13.70;56.00;;;;;;4378788;32;20019;-77